Aérodrome :
LOGIN :

S'inscrire | Disclaimer

   EN    FR    IT 

 










Légende :    VFR   VFR Marginal   IFR   IFR Intensif   IFR Très Intensif
Visi : 
Plafond : 
>= 8 km
>= 3000ft
5 à 8 km
1000 à 3000 ft
1500m à 5 km
500 à 1000 ft
800 à 1500m
200 à 500 ft
< 800m
< 200 ft
Symboles :   Orages  Brouillard  Fortes neiges  Fortes précipitations  Vent > 20 kt
SIGMETs :   Divers  Orages  Givrage  Turbulence  Onde Orograph.  Cendres Volcan.







- Altitude de l'aérodrome : 72 ft
- Code IATA : UDE


EHVK - Volkel Airbase

METARs EXPIRÉS :
  • 241425Z AUTO 24013KT 200V270 9999 OVC017 19/14 Q1014 WHT
  • 241355Z AUTO 22012KT 190V250 9999 FEW009 BKN017 OVC020 18/15 Q1015 WHT
  • 241325Z AUTO 24014KT 210V280 9999 FEW012 BKN017 OVC020 18/14 Q1015 WHT
  • 241255Z AUTO 24012KT 180V270 9999 OVC018 19/14 Q1015 WHT
  • 241225Z AUTO 23015KT 190V270 9999 FEW012 BKN018 OVC021 18/14 Q1015 WHT
  • 241155Z AUTO 24014KT 200V270 9999 OVC018 19/14 Q1015 WHT

Prévision TAF périmée.
Pas de NOTAMs connus pour ce terrain.



MET'MAP, la Météo Aéronautique d'un coup d'oeil ! - Copyright ORBIFLY Décembre 2007 - Disclaimer

ORBIFLY MET'MAP TEAM :

Programmation & Développement : Alexandra Zaïnal
Conception & Développement : Baudouin d'Aumeries
Co-Programmation & Développement : Marc-Olivier Méhu
Soutien technique & logistique : Manuel Goepfert

Contact : metmap@orbifly.com




SOURCES & CREDITS :

   NOAA